Sugar Ridge, Indiana
Current Conditions -  °F | °C
As of 6:53 AM on Sunday 23 Nov 2014 (Local Time) from KHUF Reporting Station
Scattered Clouds Scattered Clouds  
Wind Chill: 50°   Ceiling: Unl
Heat Index: 50°   Visibility: 10mi
Dew Point: 41°   Wind: 12mph
Humidity: 71%   Direction: 160°SSE
Pressure: 29.87"   Gusts: NA
Location:  39.3787°N, 87.0992°W
Report Text: KHUF 231153Z 16010KT 10SM SCT100 10/05 A2987 RMK AO2 SLP114 70003 T01000050 10100 20089 55014
Loading
Personal Weather Stations






























Interactive Weather Map New forecast layout! Learn more

10-Day Weather Forecast

Advertisements
Track Severe Weather on mobile